createdAt,value
2022-11-06T00:01:57.179Z,7.97
2022-11-06T00:04:24.830Z,7.10
2022-11-06T00:06:52.218Z,8.00
2022-11-06T00:09:21.857Z,7.27
2022-11-06T00:11:50.936Z,7.33
2022-11-06T00:14:18.763Z,7.83
2022-11-06T00:16:47.506Z,7.80
2022-11-06T00:19:15.910Z,7.63
2022-11-06T00:21:44.266Z,7.67
2022-11-06T00:24:15.702Z,7.50
2022-11-06T00:26:43.597Z,7.33
2022-11-06T00:29:14.904Z,7.17
2022-11-06T00:31:42.738Z,8.03
2022-11-06T00:34:11.739Z,8.80
2022-11-06T00:36:39.197Z,8.23
2022-11-06T00:39:06.526Z,8.17
2022-11-06T00:41:34.012Z,7.27
2022-11-06T00:44:03.004Z,7.27
2022-11-06T00:46:31.029Z,6.60
2022-11-06T00:48:58.938Z,6.97
2022-11-06T00:51:31.646Z,7.27
2022-11-06T00:54:02.594Z,6.83
2022-11-06T00:56:31.342Z,6.50
2022-11-06T00:59:04.740Z,6.77
2022-11-06T01:01:39.161Z,6.47
2022-11-06T01:04:21.837Z,6.67
2022-11-06T01:06:53.859Z,6.60
2022-11-06T01:09:25.853Z,6.73
2022-11-06T01:12:12.922Z,7.20
2022-11-06T01:14:44.083Z,6.03
2022-11-06T01:17:12.198Z,6.20
2022-11-06T01:19:40.619Z,5.37
2022-11-06T01:22:08.024Z,6.33
2022-11-06T01:24:36.099Z,6.23
2022-11-06T01:29:51.242Z,5.37
2022-11-06T01:32:18.776Z,6.00
2022-11-06T01:34:46.916Z,5.50
2022-11-06T01:37:15.077Z,5.87
2022-11-06T01:39:43.008Z,5.47
2022-11-06T01:42:19.531Z,5.40
2022-11-06T01:45:27.135Z,5.40
2022-11-06T01:47:55.617Z,4.93
2022-11-06T01:50:23.401Z,5.60
2022-11-06T01:52:51.986Z,4.77
2022-11-06T01:55:32.148Z,4.70
2022-11-06T01:58:02.239Z,4.90
2022-11-06T02:00:31.212Z,5.10
2022-11-06T02:03:00.082Z,4.90
2022-11-06T02:05:28.329Z,4.57
2022-11-06T02:07:57.787Z,4.60
2022-11-06T02:10:25.889Z,5.23
2022-11-06T02:13:20.999Z,4.60
2022-11-06T02:16:06.506Z,5.03
2022-11-06T02:18:46.001Z,4.30
2022-11-06T02:21:34.651Z,4.40
2022-11-06T02:24:44.534Z,4.23
2022-11-06T02:27:23.017Z,4.40
2022-11-06T02:29:53.370Z,4.43
2022-11-06T02:32:33.000Z,4.53
2022-11-06T02:35:06.018Z,4.60
2022-11-06T02:37:37.305Z,4.30
2022-11-06T02:40:08.282Z,4.30
2022-11-06T02:42:41.902Z,4.03
2022-11-06T02:45:14.354Z,4.40
2022-11-06T02:47:43.411Z,4.60
2022-11-06T02:50:21.849Z,4.57
2022-11-06T02:53:02.025Z,4.40
2022-11-06T02:55:40.455Z,4.13
2022-11-06T02:58:19.314Z,4.80
2022-11-06T03:00:55.637Z,4.00
2022-11-06T03:03:30.658Z,4.10
2022-11-06T03:06:18.102Z,4.07
2022-11-06T03:09:03.932Z,4.10
2022-11-06T03:11:39.058Z,3.90
2022-11-06T03:14:27.591Z,3.80
2022-11-06T03:17:44.261Z,4.07
2022-11-06T03:20:32.911Z,3.63
2022-11-06T03:23:17.679Z,4.07
2022-11-06T03:25:56.338Z,4.00
2022-11-06T03:28:44.545Z,4.10
2022-11-06T03:31:16.420Z,4.13
2022-11-06T03:33:52.023Z,3.40
2022-11-06T03:36:34.362Z,3.63
2022-11-06T03:39:09.807Z,3.87
2022-11-06T03:41:48.153Z,3.60
2022-11-06T03:44:22.031Z,4.23
2022-11-06T03:47:14.835Z,3.60
2022-11-06T03:49:51.641Z,3.50
2022-11-06T03:52:29.441Z,3.67
2022-11-06T03:55:08.527Z,3.83
2022-11-06T03:57:57.932Z,3.87
2022-11-06T04:00:25.373Z,3.63
2022-11-06T04:03:05.142Z,3.40
2022-11-06T04:06:04.675Z,3.67
2022-11-06T04:08:52.005Z,3.77
2022-11-06T04:11:41.932Z,3.20
2022-11-06T04:14:10.555Z,3.40
2022-11-06T04:16:52.362Z,3.33
2022-11-06T04:19:23.516Z,3.70
2022-11-06T04:22:18.685Z,3.73
2022-11-06T04:25:45.392Z,3.73
2022-11-06T04:28:41.340Z,3.77
2022-11-06T04:31:31.475Z,3.63
2022-11-06T04:34:15.925Z,3.90
2022-11-06T04:36:53.651Z,3.33
2022-11-06T04:39:40.022Z,3.20
2022-11-06T04:42:27.926Z,3.63
2022-11-06T04:45:14.941Z,3.57
2022-11-06T04:47:44.146Z,3.73
2022-11-06T04:50:13.847Z,3.83
2022-11-06T04:52:41.748Z,3.43
2022-11-06T04:55:09.376Z,3.23
2022-11-06T04:57:36.832Z,4.30
2022-11-06T05:00:06.570Z,3.37
2022-11-06T05:02:33.898Z,3.93
2022-11-06T05:05:01.200Z,3.53
2022-11-06T05:07:28.573Z,3.80
2022-11-06T05:09:55.859Z,3.20
2022-11-06T05:12:24.343Z,3.37
2022-11-06T05:14:51.682Z,3.53
2022-11-06T05:17:19.004Z,3.43
2022-11-06T05:19:46.341Z,3.50
2022-11-06T05:22:32.025Z,2.97
2022-11-06T05:24:59.249Z,3.23
2022-11-06T05:27:26.608Z,3.77
2022-11-06T05:29:53.942Z,3.30
2022-11-06T05:32:21.352Z,3.20
2022-11-06T05:34:48.628Z,3.40
2022-11-06T05:37:16.046Z,3.37
2022-11-06T05:39:43.335Z,3.50
2022-11-06T05:42:10.802Z,3.20
2022-11-06T05:44:38.197Z,3.87
2022-11-06T05:47:05.539Z,3.50
2022-11-06T05:49:32.924Z,3.70
2022-11-06T05:52:00.427Z,3.70
2022-11-06T05:54:27.918Z,3.90
2022-11-06T05:56:55.188Z,3.43
2022-11-06T05:59:22.723Z,3.37
2022-11-06T06:01:50.054Z,3.33
2022-11-06T06:04:17.493Z,2.97
2022-11-06T06:06:45.105Z,3.37
2022-11-06T06:09:12.311Z,3.10
2022-11-06T06:11:39.777Z,4.10
2022-11-06T06:14:07.275Z,3.03
2022-11-06T06:16:34.361Z,3.73
2022-11-06T06:19:01.760Z,3.63
2022-11-06T06:21:28.996Z,3.30
2022-11-06T06:23:56.164Z,3.50
2022-11-06T06:26:23.281Z,3.60
2022-11-06T06:28:50.413Z,3.27
2022-11-06T06:31:17.797Z,3.10
2022-11-06T06:33:45.099Z,3.80
2022-11-06T06:36:12.409Z,3.40
2022-11-06T06:38:39.718Z,3.50
2022-11-06T06:41:08.887Z,3.37
2022-11-06T06:43:36.205Z,3.43
2022-11-06T06:46:05.826Z,3.13
2022-11-06T06:48:33.574Z,3.30
2022-11-06T06:51:03.499Z,3.30
2022-11-06T06:53:31.042Z,3.67
2022-11-06T06:56:00.464Z,3.77
2022-11-06T06:58:29.653Z,3.80
2022-11-06T07:01:02.196Z,3.83
2022-11-06T07:03:29.572Z,3.90
2022-11-06T07:05:58.897Z,4.27
2022-11-06T07:08:27.402Z,3.87
2022-11-06T07:11:09.676Z,3.80
2022-11-06T07:13:37.453Z,3.83
2022-11-06T07:16:10.624Z,3.30
2022-11-06T07:18:38.916Z,3.43
2022-11-06T07:21:12.196Z,3.67
2022-11-06T07:23:40.154Z,3.73
2022-11-06T07:26:07.660Z,3.70
2022-11-06T07:28:35.507Z,3.80
2022-11-06T07:31:07.260Z,3.67
2022-11-06T07:33:35.778Z,3.73
2022-11-06T07:36:13.850Z,3.60
2022-11-06T07:38:43.037Z,3.60
2022-11-06T07:41:14.893Z,3.73
2022-11-06T07:43:43.012Z,3.20
2022-11-06T07:46:12.824Z,3.73
2022-11-06T07:48:40.049Z,3.87
2022-11-06T07:51:09.980Z,3.40
2022-11-06T07:53:38.143Z,3.40
2022-11-06T07:56:05.985Z,3.47
2022-11-06T07:58:34.208Z,3.10
2022-11-06T08:01:01.650Z,3.27
2022-11-06T08:03:30.420Z,3.23
2022-11-06T08:05:59.460Z,3.57
2022-11-06T08:08:28.843Z,3.43
2022-11-06T08:10:56.054Z,3.23
2022-11-06T08:13:23.233Z,3.80
2022-11-06T08:15:50.383Z,3.10
2022-11-06T08:18:17.892Z,3.20
2022-11-06T08:20:45.168Z,3.17
2022-11-06T08:23:13.639Z,3.20
2022-11-06T08:25:41.178Z,3.37
2022-11-06T08:28:09.303Z,3.73
2022-11-06T08:30:36.730Z,3.50
2022-11-06T08:33:07.931Z,3.40
2022-11-06T08:35:35.767Z,3.33
2022-11-06T08:38:04.054Z,3.30
2022-11-06T08:40:31.731Z,3.10
2022-11-06T08:43:07.678Z,2.90
2022-11-06T08:45:41.123Z,3.17
2022-11-06T08:48:09.777Z,3.17
2022-11-06T08:50:39.565Z,3.03
2022-11-06T08:53:07.758Z,3.10
2022-11-06T08:55:38.559Z,3.00
2022-11-06T08:58:07.092Z,3.53
2022-11-06T09:00:34.613Z,3.60
2022-11-06T09:03:10.083Z,3.20
2022-11-06T09:05:41.741Z,3.00
2022-11-06T09:08:10.194Z,3.13
2022-11-06T09:10:39.441Z,3.20
2022-11-06T09:13:07.250Z,2.80
2022-11-06T09:15:34.928Z,2.77
2022-11-06T09:18:02.441Z,3.10
2022-11-06T09:20:29.964Z,3.53
2022-11-06T09:23:06.325Z,3.40
2022-11-06T09:25:33.733Z,3.27
2022-11-06T09:28:01.254Z,3.13
2022-11-06T09:30:31.465Z,3.17
2022-11-06T09:33:02.577Z,3.20
2022-11-06T09:35:33.457Z,3.87
2022-11-06T09:38:06.722Z,3.87
2022-11-06T09:40:47.533Z,4.10
2022-11-06T09:46:30.264Z,4.30
2022-11-06T09:49:23.272Z,4.47
2022-11-06T09:52:05.778Z,4.53
2022-11-06T09:54:39.166Z,5.00
2022-11-06T09:57:19.985Z,5.10
2022-11-06T09:59:48.370Z,4.50
2022-11-06T10:02:47.138Z,4.90
2022-11-06T10:05:29.307Z,4.43
2022-11-06T10:08:22.566Z,4.33
2022-11-06T10:11:15.712Z,4.50
2022-11-06T10:13:54.496Z,3.70
2022-11-06T10:16:59.048Z,4.47
2022-11-06T10:19:42.922Z,3.67
2022-11-06T10:22:18.205Z,3.75
2022-11-06T10:25:20.871Z,3.03
2022-11-06T10:28:20.950Z,3.30
2022-11-06T10:31:38.319Z,2.87
2022-11-06T10:34:31.733Z,2.90
2022-11-06T10:37:29.845Z,2.97
2022-11-06T10:39:58.327Z,3.13
2022-11-06T10:42:37.606Z,3.50
2022-11-06T10:45:27.790Z,3.30
2022-11-06T10:48:03.547Z,3.87
2022-11-06T10:50:51.095Z,3.03
2022-11-06T10:53:51.823Z,3.20
2022-11-06T10:56:47.698Z,3.30
2022-11-06T10:59:16.585Z,4.00
2022-11-06T11:01:43.983Z,3.10
2022-11-06T11:04:11.604Z,3.47
2022-11-06T11:06:40.914Z,3.40
2022-11-06T11:09:28.353Z,3.37
2022-11-06T11:11:55.777Z,2.90
2022-11-06T11:14:26.786Z,3.10
2022-11-06T11:16:54.900Z,3.10
2022-11-06T11:19:38.259Z,3.30
2022-11-06T11:22:30.317Z,2.90
2022-11-06T11:25:09.092Z,2.70
2022-11-06T11:27:45.391Z,3.07
2022-11-06T11:30:23.407Z,3.00
2022-11-06T11:32:51.246Z,3.00
2022-11-06T11:35:23.907Z,3.00
2022-11-06T11:37:51.270Z,3.07
2022-11-06T11:40:21.092Z,3.13
2022-11-06T11:42:48.880Z,3.40
2022-11-06T11:45:21.739Z,3.83
2022-11-06T11:47:52.033Z,2.63
2022-11-06T11:50:22.271Z,3.10
2022-11-06T11:52:55.042Z,3.57
2022-11-06T11:55:28.125Z,2.77
2022-11-06T11:57:59.597Z,2.80
2022-11-06T12:00:28.499Z,2.97
2022-11-06T12:03:05.948Z,3.17
2022-11-06T12:05:40.285Z,2.40
2022-11-06T12:08:21.191Z,13.67
2022-11-06T12:10:49.095Z,2.53
2022-11-06T12:13:24.696Z,2.50
2022-11-06T12:16:15.186Z,2.40
2022-11-06T12:18:48.118Z,2.43
2022-11-06T12:21:30.788Z,2.40
2022-11-06T12:24:10.050Z,2.10
2022-11-06T12:26:52.086Z,2.03
2022-11-06T12:29:44.758Z,2.23
2022-11-06T12:32:36.776Z,2.53
2022-11-06T12:35:29.937Z,2.40
2022-11-06T12:38:28.570Z,2.30
2022-11-06T12:41:31.590Z,2.50
2022-11-06T12:44:00.052Z,2.43
2022-11-06T12:46:29.967Z,2.30
2022-11-06T12:49:22.077Z,2.63
2022-11-06T12:52:19.893Z,2.30
2022-11-06T12:55:15.625Z,2.20
2022-11-06T12:58:09.400Z,2.57
2022-11-06T13:01:20.817Z,2.50
2022-11-06T13:04:18.054Z,2.50
2022-11-06T13:07:19.403Z,4.50
2022-11-06T13:10:13.178Z,2.50
2022-11-06T13:13:31.440Z,2.77
2022-11-06T13:16:13.740Z,2.67
2022-11-06T13:18:52.824Z,2.90
2022-11-06T13:21:52.978Z,3.00
2022-11-06T13:24:29.989Z,2.77
2022-11-06T13:27:52.543Z,2.10
2022-11-06T13:30:22.387Z,2.40
2022-11-06T13:33:15.187Z,2.20
2022-11-06T13:35:44.537Z,2.73
2022-11-06T13:38:26.167Z,2.90
2022-11-06T13:41:03.508Z,2.70
2022-11-06T13:43:47.223Z,2.50
2022-11-06T13:46:32.198Z,2.63
2022-11-06T13:49:33.692Z,2.43
2022-11-06T13:52:03.876Z,2.77
2022-11-06T13:54:45.919Z,2.43
2022-11-06T13:57:32.244Z,2.57
2022-11-06T14:00:18.063Z,2.73
2022-11-06T14:03:35.914Z,2.60
2022-11-06T14:06:22.098Z,2.10
2022-11-06T14:09:22.072Z,2.67
2022-11-06T14:11:57.269Z,2.40
2022-11-06T14:14:30.505Z,2.50
2022-11-06T14:17:15.456Z,2.20
2022-11-06T14:19:50.904Z,2.47
2022-11-06T14:22:31.835Z,2.40
2022-11-06T14:25:01.993Z,2.00
2022-11-06T14:27:29.517Z,2.47
2022-11-06T14:30:05.597Z,2.43
2022-11-06T14:32:49.574Z,2.40
2022-11-06T14:35:28.958Z,2.60
2022-11-06T14:38:28.815Z,2.33
2022-11-06T14:40:56.720Z,2.40
2022-11-06T14:43:32.741Z,2.37
2022-11-06T14:46:32.664Z,2.63
2022-11-06T14:49:16.146Z,2.60
2022-11-06T14:51:43.258Z,3.00
2022-11-06T14:54:22.953Z,2.77
2022-11-06T14:56:54.866Z,2.50
2022-11-06T14:59:33.400Z,2.40
2022-11-06T15:02:12.710Z,3.03
2022-11-06T15:04:49.703Z,2.43
2022-11-06T15:08:05.606Z,2.80
2022-11-06T15:10:42.491Z,2.50
2022-11-06T15:13:30.198Z,2.30
2022-11-06T15:16:10.848Z,2.63
2022-11-06T15:18:46.253Z,2.50
2022-11-06T15:21:23.854Z,2.40
2022-11-06T15:24:06.410Z,2.17
2022-11-06T15:26:49.426Z,2.50
2022-11-06T15:29:16.412Z,2.30
2022-11-06T15:31:47.220Z,2.33
2022-11-06T15:34:24.345Z,2.50
2022-11-06T15:36:56.650Z,2.70
2022-11-06T15:39:42.141Z,2.40
2022-11-06T15:42:16.405Z,3.57
2022-11-06T15:44:46.515Z,2.40
2022-11-06T15:47:24.591Z,2.80
2022-11-06T15:50:20.711Z,3.27
2022-11-06T15:52:52.360Z,2.63
2022-11-06T15:55:37.019Z,2.73
2022-11-06T15:58:31.376Z,2.70
2022-11-06T16:01:01.574Z,2.73
2022-11-06T16:03:33.147Z,2.50
2022-11-06T16:06:05.009Z,2.60
2022-11-06T16:08:32.674Z,2.80
2022-11-06T16:11:01.822Z,2.57
2022-11-06T16:13:30.041Z,2.67
2022-11-06T16:16:00.512Z,3.27
2022-11-06T16:18:42.196Z,2.60
2022-11-06T16:21:21.559Z,3.10
2022-11-06T16:24:04.725Z,2.73
2022-11-06T16:26:50.589Z,3.13
2022-11-06T16:29:28.239Z,2.77
2022-11-06T16:32:04.043Z,2.80
2022-11-06T16:34:31.000Z,2.80
2022-11-06T16:37:07.381Z,3.30
2022-11-06T16:39:50.976Z,2.53
2022-11-06T16:42:38.894Z,2.60
2022-11-06T16:45:23.180Z,3.47
2022-11-06T16:48:23.621Z,3.43
2022-11-06T16:50:59.728Z,5.27
2022-11-06T16:53:33.788Z,2.87
2022-11-06T16:56:04.467Z,3.20
2022-11-06T16:58:46.987Z,3.07
2022-11-06T17:01:20.151Z,3.00
2022-11-06T17:03:56.749Z,3.20
2022-11-06T17:06:28.356Z,3.57
2022-11-06T17:09:28.690Z,3.33
2022-11-06T17:11:58.491Z,3.87
2022-11-06T17:14:27.058Z,3.93
2022-11-06T17:17:00.447Z,3.40
2022-11-06T17:19:28.765Z,3.80
2022-11-06T17:21:56.826Z,3.30
2022-11-06T17:24:36.552Z,3.23
2022-11-06T17:27:05.647Z,3.30
2022-11-06T17:29:36.117Z,3.20
2022-11-06T17:32:04.035Z,3.50
2022-11-06T17:34:31.305Z,3.30
2022-11-06T17:36:58.697Z,3.40
2022-11-06T17:39:25.995Z,3.37
2022-11-06T17:41:54.678Z,3.20
2022-11-06T17:44:22.394Z,3.13
2022-11-06T17:46:49.918Z,3.00
2022-11-06T17:49:18.634Z,4.20
2022-11-06T17:51:59.958Z,3.10
2022-11-06T17:54:33.253Z,2.97
2022-11-06T17:57:04.091Z,3.30
2022-11-06T17:59:32.182Z,2.90
2022-11-06T18:02:00.282Z,3.40
2022-11-06T18:04:34.085Z,2.93
2022-11-06T18:07:01.270Z,3.60
2022-11-06T18:09:28.482Z,3.03
2022-11-06T18:11:56.533Z,3.00
2022-11-06T18:14:25.807Z,3.00
2022-11-06T18:16:53.634Z,3.20
2022-11-06T18:19:23.925Z,3.73
2022-11-06T18:21:53.717Z,3.60
2022-11-06T18:24:20.988Z,3.07
2022-11-06T18:26:48.091Z,3.63
2022-11-06T18:29:18.851Z,2.90
2022-11-06T18:31:48.646Z,3.40
2022-11-06T18:34:20.597Z,3.50
2022-11-06T18:36:50.559Z,3.13
2022-11-06T18:39:18.378Z,2.87
2022-11-06T18:41:45.946Z,3.10
2022-11-06T18:44:16.940Z,3.30
2022-11-06T18:46:46.096Z,2.80
2022-11-06T18:49:13.328Z,3.27
2022-11-06T18:51:40.606Z,2.90
2022-11-06T18:54:10.826Z,3.20
2022-11-06T18:56:38.893Z,3.00
2022-11-06T18:59:15.590Z,2.73
2022-11-06T19:01:42.927Z,3.30
2022-11-06T19:04:10.957Z,3.30
2022-11-06T19:06:39.482Z,3.10
2022-11-06T19:09:08.572Z,2.93
2022-11-06T19:11:35.798Z,3.03
2022-11-06T19:14:02.905Z,2.80
2022-11-06T19:16:30.112Z,3.07
2022-11-06T19:21:30.372Z,2.90
2022-11-06T19:24:04.431Z,3.00
2022-11-06T19:26:35.245Z,2.43
2022-11-06T19:29:04.295Z,4.03
2022-11-06T19:31:33.244Z,2.93
2022-11-06T19:34:02.283Z,2.93
2022-11-06T19:36:31.125Z,3.00
2022-11-06T19:38:59.245Z,4.17
2022-11-06T19:41:27.667Z,2.70
2022-11-06T19:43:55.056Z,3.00
2022-11-06T19:46:26.922Z,3.30
2022-11-06T19:48:55.507Z,2.90
2022-11-06T19:51:22.541Z,3.10
2022-11-06T19:53:53.353Z,3.03
2022-11-06T19:56:21.375Z,3.13
2022-11-06T19:58:50.271Z,2.93
2022-11-06T20:01:18.978Z,2.87
2022-11-06T20:03:46.806Z,2.77
2022-11-06T20:06:15.025Z,2.87
2022-11-06T20:08:42.315Z,3.27
2022-11-06T20:11:13.486Z,2.80
2022-11-06T20:13:44.828Z,2.77
2022-11-06T20:16:17.667Z,3.20
2022-11-06T20:18:55.456Z,2.80
2022-11-06T20:21:26.234Z,3.17
2022-11-06T20:23:53.832Z,2.80
2022-11-06T20:26:21.393Z,3.30
2022-11-06T20:28:49.175Z,3.10
2022-11-06T20:31:19.398Z,3.17
2022-11-06T20:33:47.838Z,3.23
2022-11-06T20:36:27.355Z,3.40
2022-11-06T20:38:58.833Z,2.90
2022-11-06T20:41:26.740Z,3.00
2022-11-06T20:43:54.499Z,5.13
2022-11-06T20:46:23.586Z,3.10
2022-11-06T20:48:51.728Z,3.00
2022-11-06T20:51:23.945Z,3.10
2022-11-06T20:53:51.262Z,2.90
2022-11-06T20:56:21.654Z,3.20
2022-11-06T20:58:49.231Z,4.80
2022-11-06T21:01:21.129Z,2.90
2022-11-06T21:03:49.995Z,3.53
2022-11-06T21:06:19.382Z,3.13
2022-11-06T21:08:47.816Z,3.30
2022-11-06T21:11:19.781Z,3.13
2022-11-06T21:13:51.913Z,2.80
2022-11-06T21:16:29.842Z,3.07
2022-11-06T21:18:57.062Z,2.83
2022-11-06T21:21:27.665Z,2.80
2022-11-06T21:23:55.604Z,2.80
2022-11-06T21:26:27.687Z,2.87
2022-11-06T21:28:56.074Z,3.40
2022-11-06T21:31:27.859Z,2.97
2022-11-06T21:33:58.450Z,3.03
2022-11-06T21:36:35.162Z,2.90
2022-11-06T21:39:10.498Z,3.03
2022-11-06T21:41:38.640Z,2.90
2022-11-06T21:44:06.946Z,2.67
2022-11-06T21:46:35.026Z,2.67
2022-11-06T21:49:02.639Z,2.53
2022-11-06T21:51:32.228Z,3.10
2022-11-06T21:54:18.282Z,2.90
2022-11-06T21:56:49.343Z,3.10
2022-11-06T21:59:20.030Z,3.20
2022-11-06T22:01:47.537Z,2.80
2022-11-06T22:04:14.977Z,2.93
2022-11-06T22:06:43.720Z,3.40
2022-11-06T22:09:13.273Z,3.10
2022-11-06T22:11:43.858Z,3.00
2022-11-06T22:14:16.876Z,3.10
2022-11-06T22:16:46.722Z,2.80
2022-11-06T22:19:15.522Z,3.30
2022-11-06T22:21:43.456Z,3.00
2022-11-06T22:24:14.937Z,3.30
2022-11-06T22:26:42.518Z,3.20
2022-11-06T22:29:15.177Z,3.20
2022-11-06T22:31:42.939Z,3.40
2022-11-06T22:34:12.219Z,3.50
2022-11-06T22:36:41.327Z,3.80
2022-11-06T22:39:10.843Z,3.20
2022-11-06T22:41:39.195Z,3.13
2022-11-06T22:44:07.456Z,3.70
2022-11-06T22:46:34.784Z,3.20
2022-11-06T22:49:02.577Z,3.43
2022-11-06T22:51:31.815Z,3.20
2022-11-06T22:54:00.689Z,3.57
2022-11-06T22:56:30.496Z,3.20
2022-11-06T22:59:01.119Z,3.53
2022-11-06T23:01:30.916Z,3.70
2022-11-06T23:04:04.142Z,4.03
2022-11-06T23:06:32.216Z,3.53
2022-11-06T23:08:59.888Z,3.50
2022-11-06T23:11:29.069Z,3.50
2022-11-06T23:13:56.648Z,3.43
2022-11-06T23:16:45.424Z,3.30
2022-11-06T23:19:16.742Z,3.30
2022-11-06T23:21:43.929Z,3.57
2022-11-06T23:24:12.006Z,3.63
2022-11-06T23:26:39.410Z,3.30
2022-11-06T23:29:06.731Z,3.40
2022-11-06T23:31:33.876Z,3.20
2022-11-06T23:34:01.063Z,3.60
2022-11-06T23:36:28.239Z,3.40
2022-11-06T23:38:55.672Z,3.50
2022-11-06T23:41:41.582Z,3.50
2022-11-06T23:44:28.709Z,3.63
2022-11-06T23:46:55.930Z,3.40
2022-11-06T23:49:23.936Z,3.20
2022-11-06T23:51:51.369Z,3.77
2022-11-06T23:54:18.569Z,4.00
2022-11-06T23:56:45.693Z,3.67
2022-11-06T23:59:13.095Z,3.57
